Weather at Flugplatz Hausen am Albis

Public forecast

Using degrees Celsius for public forecast. Weather courtesy of forecast.io.

Closest aviation weather report (METAR) to Flugplatz Hausen am Albis

Closest report is Dübendorf Air Base, 11.0 nm (20.4 km) NNE. Retrieved 2020/10/20 22:20 UTC (3 minutes ago):

LSMD 202220Z AUTO VRB02KT 9999NDV BKN200 09/07 Q1013 RMK

Closest aviation forecast (TAF) to Flugplatz Hausen am Albis

Closest forecast is Dübendorf Air Base, 11.0 nm (20.4 km) NNE. Retrieved 2020/10/20 17:00 UTC (5 hours ago):

TAF LSMD 201625Z 2017/2123 VRB03KT CAVOK BECMG 2020/2023 4000 MIFG NSC TEMPO 2023/2106 0600 BCFG BECMG 2106/2109 6000 BECMG 2109/2111 CAVOK